sensor_id;sensor_type;location;lat;lon;timestamp;temperature;humidity
6792;DHT22;3433;48.730;9.108;2023-03-03T00:00:42;5.00;94.10
6792;DHT22;3433;48.730;9.108;2023-03-03T00:03:29;4.90;94.00
6792;DHT22;3433;48.730;9.108;2023-03-03T00:06:19;4.90;94.10
6792;DHT22;3433;48.730;9.108;2023-03-03T00:09:06;4.90;94.10
6792;DHT22;3433;48.730;9.108;2023-03-03T00:11:55;4.90;94.20
6792;DHT22;3433;48.730;9.108;2023-03-03T00:14:44;4.90;94.20
6792;DHT22;3433;48.730;9.108;2023-03-03T00:17:32;4.90;94.20
6792;DHT22;3433;48.730;9.108;2023-03-03T00:20:29;4.80;94.20
6792;DHT22;3433;48.730;9.108;2023-03-03T00:23:25;4.80;94.20
6792;DHT22;3433;48.730;9.108;2023-03-03T00:26:19;4.80;94.20
6792;DHT22;3433;48.730;9.108;2023-03-03T00:29:27;4.80;94.20
6792;DHT22;3433;48.730;9.108;2023-03-03T00:32:23;4.70;94.30
6792;DHT22;3433;48.730;9.108;2023-03-03T00:35:23;4.70;94.40
6792;DHT22;3433;48.730;9.108;2023-03-03T00:38:13;4.70;94.20
6792;DHT22;3433;48.730;9.108;2023-03-03T00:41:10;4.70;94.10
6792;DHT22;3433;48.730;9.108;2023-03-03T00:47:28;4.60;94.10
6792;DHT22;3433;48.730;9.108;2023-03-03T00:50:28;4.60;94.10
6792;DHT22;3433;48.730;9.108;2023-03-03T00:53:17;4.40;94.00
6792;DHT22;3433;48.730;9.108;2023-03-03T00:56:06;4.50;94.20
6792;DHT22;3433;48.730;9.108;2023-03-03T00:58:53;4.40;94.10
6792;DHT22;3433;48.730;9.108;2023-03-03T01:01:40;4.40;93.90
6792;DHT22;3433;48.730;9.108;2023-03-03T01:04:27;4.30;93.90
6792;DHT22;3433;48.730;9.108;2023-03-03T01:07:15;4.30;94.00
6792;DHT22;3433;48.730;9.108;2023-03-03T01:10:02;4.20;93.80
6792;DHT22;3433;48.730;9.108;2023-03-03T01:12:51;4.10;93.90
6792;DHT22;3433;48.730;9.108;2023-03-03T01:15:38;4.10;93.80
6792;DHT22;3433;48.730;9.108;2023-03-03T01:18:26;4.00;93.80
6792;DHT22;3433;48.730;9.108;2023-03-03T01:21:13;4.00;93.80
6792;DHT22;3433;48.730;9.108;2023-03-03T01:24:00;3.90;93.80
6792;DHT22;3433;48.730;9.108;2023-03-03T01:26:48;3.90;93.80
6792;DHT22;3433;48.730;9.108;2023-03-03T01:29:36;3.80;93.70
6792;DHT22;3433;48.730;9.108;2023-03-03T01:32:24;3.80;93.70
6792;DHT22;3433;48.730;9.108;2023-03-03T01:35:11;3.80;93.70
6792;DHT22;3433;48.730;9.108;2023-03-03T01:37:58;3.70;93.60
6792;DHT22;3433;48.730;9.108;2023-03-03T01:40:51;3.60;93.60
6792;DHT22;3433;48.730;9.108;2023-03-03T01:43:43;3.60;93.70
6792;DHT22;3433;48.730;9.108;2023-03-03T01:46:43;3.50;93.60
6792;DHT22;3433;48.730;9.108;2023-03-03T01:49:34;3.50;93.50
6792;DHT22;3433;48.730;9.108;2023-03-03T01:52:24;3.40;93.60
6792;DHT22;3433;48.730;9.108;2023-03-03T01:55:16;3.40;93.60
6792;DHT22;3433;48.730;9.108;2023-03-03T01:58:09;3.40;93.80
6792;DHT22;3433;48.730;9.108;2023-03-03T02:01:00;3.30;93.70
6792;DHT22;3433;48.730;9.108;2023-03-03T02:03:50;3.30;93.80
6792;DHT22;3433;48.730;9.108;2023-03-03T02:06:42;3.30;93.60
6792;DHT22;3433;48.730;9.108;2023-03-03T02:09:37;3.20;93.60
6792;DHT22;3433;48.730;9.108;2023-03-03T02:12:31;3.20;93.60
6792;DHT22;3433;48.730;9.108;2023-03-03T02:15:22;3.20;93.60
6792;DHT22;3433;48.730;9.108;2023-03-03T02:18:12;3.10;93.50
6792;DHT22;3433;48.730;9.108;2023-03-03T02:21:04;3.10;93.60
6792;DHT22;3433;48.730;9.108;2023-03-03T02:23:59;3.10;93.50
6792;DHT22;3433;48.730;9.108;2023-03-03T02:26:50;3.00;93.60
6792;DHT22;3433;48.730;9.108;2023-03-03T02:29:37;3.00;93.60
6792;DHT22;3433;48.730;9.108;2023-03-03T02:32:25;3.00;93.80
6792;DHT22;3433;48.730;9.108;2023-03-03T02:35:30;3.00;93.80
6792;DHT22;3433;48.730;9.108;2023-03-03T02:38:20;2.90;94.10
6792;DHT22;3433;48.730;9.108;2023-03-03T02:41:12;2.90;93.70
6792;DHT22;3433;48.730;9.108;2023-03-03T02:44:05;2.90;93.80
6792;DHT22;3433;48.730;9.108;2023-03-03T02:46:55;2.80;93.90
6792;DHT22;3433;48.730;9.108;2023-03-03T02:49:42;2.80;93.90
6792;DHT22;3433;48.730;9.108;2023-03-03T02:52:30;2.80;93.90
6792;DHT22;3433;48.730;9.108;2023-03-03T02:55:17;2.90;93.80
6792;DHT22;3433;48.730;9.108;2023-03-03T02:58:04;2.80;94.00
6792;DHT22;3433;48.730;9.108;2023-03-03T03:00:52;2.80;94.00
6792;DHT22;3433;48.730;9.108;2023-03-03T03:03:40;2.90;94.10
6792;DHT22;3433;48.730;9.108;2023-03-03T03:06:27;2.90;94.20
6792;DHT22;3433;48.730;9.108;2023-03-03T03:09:15;2.90;94.40
6792;DHT22;3433;48.730;9.108;2023-03-03T03:12:03;2.90;94.50
6792;DHT22;3433;48.730;9.108;2023-03-03T03:14:50;2.90;94.40
6792;DHT22;3433;48.730;9.108;2023-03-03T03:17:39;3.00;94.60
6792;DHT22;3433;48.730;9.108;2023-03-03T03:20:26;3.00;94.70
6792;DHT22;3433;48.730;9.108;2023-03-03T03:23:14;3.10;94.70
6792;DHT22;3433;48.730;9.108;2023-03-03T03:26:01;3.10;94.80
6792;DHT22;3433;48.730;9.108;2023-03-03T03:28:49;3.10;94.70
6792;DHT22;3433;48.730;9.108;2023-03-03T03:31:36;3.20;94.90
6792;DHT22;3433;48.730;9.108;2023-03-03T03:34:25;3.20;94.80
6792;DHT22;3433;48.730;9.108;2023-03-03T03:37:12;3.20;95.00
6792;DHT22;3433;48.730;9.108;2023-03-03T03:40:00;3.30;95.00
6792;DHT22;3433;48.730;9.108;2023-03-03T03:42:47;3.40;95.10
6792;DHT22;3433;48.730;9.108;2023-03-03T03:45:34;3.40;95.10
6792;DHT22;3433;48.730;9.108;2023-03-03T03:48:21;3.40;95.10
6792;DHT22;3433;48.730;9.108;2023-03-03T03:51:11;3.50;95.10
6792;DHT22;3433;48.730;9.108;2023-03-03T03:53:58;3.50;95.10
6792;DHT22;3433;48.730;9.108;2023-03-03T03:56:45;3.60;95.30
6792;DHT22;3433;48.730;9.108;2023-03-03T03:59:32;3.60;95.40
6792;DHT22;3433;48.730;9.108;2023-03-03T04:02:19;3.70;95.40
6792;DHT22;3433;48.730;9.108;2023-03-03T04:05:07;3.70;95.70
6792;DHT22;3433;48.730;9.108;2023-03-03T04:07:56;3.80;95.50
6792;DHT22;3433;48.730;9.108;2023-03-03T04:10:43;3.80;95.50
6792;DHT22;3433;48.730;9.108;2023-03-03T04:13:30;3.80;95.70
6792;DHT22;3433;48.730;9.108;2023-03-03T04:16:19;3.90;95.70
6792;DHT22;3433;48.730;9.108;2023-03-03T04:19:07;4.00;95.80
6792;DHT22;3433;48.730;9.108;2023-03-03T04:21:54;4.00;95.70
6792;DHT22;3433;48.730;9.108;2023-03-03T04:24:42;3.90;96.00
6792;DHT22;3433;48.730;9.108;2023-03-03T04:27:30;4.00;95.80
6792;DHT22;3433;48.730;9.108;2023-03-03T04:30:17;4.10;95.80
6792;DHT22;3433;48.730;9.108;2023-03-03T04:33:04;4.10;96.00
6792;DHT22;3433;48.730;9.108;2023-03-03T04:35:52;4.20;96.00
6792;DHT22;3433;48.730;9.108;2023-03-03T04:38:39;4.20;95.90
6792;DHT22;3433;48.730;9.108;2023-03-03T04:41:27;4.30;96.20
6792;DHT22;3433;48.730;9.108;2023-03-03T04:44:15;4.20;95.90
6792;DHT22;3433;48.730;9.108;2023-03-03T04:47:02;4.30;96.10
6792;DHT22;3433;48.730;9.108;2023-03-03T04:49:49;4.30;96.00
6792;DHT22;3433;48.730;9.108;2023-03-03T04:52:37;4.30;96.00
6792;DHT22;3433;48.730;9.108;2023-03-03T04:55:24;4.30;96.00
6792;DHT22;3433;48.730;9.108;2023-03-03T04:58:13;4.40;96.00
6792;DHT22;3433;48.730;9.108;2023-03-03T05:01:01;4.40;96.00
6792;DHT22;3433;48.730;9.108;2023-03-03T05:03:48;4.40;96.00
6792;DHT22;3433;48.730;9.108;2023-03-03T05:06:35;4.40;96.00
6792;DHT22;3433;48.730;9.108;2023-03-03T05:09:23;4.40;96.00
6792;DHT22;3433;48.730;9.108;2023-03-03T05:12:10;4.50;96.10
6792;DHT22;3433;48.730;9.108;2023-03-03T05:14:58;4.50;96.10
6792;DHT22;3433;48.730;9.108;2023-03-03T05:17:46;4.50;96.00
6792;DHT22;3433;48.730;9.108;2023-03-03T05:20:33;4.50;96.10
6792;DHT22;3433;48.730;9.108;2023-03-03T05:23:21;4.60;96.60
6792;DHT22;3433;48.730;9.108;2023-03-03T05:26:08;4.60;96.30
6792;DHT22;3433;48.730;9.108;2023-03-03T05:28:55;4.50;96.10
6792;DHT22;3433;48.730;9.108;2023-03-03T05:31:44;4.50;96.10
6792;DHT22;3433;48.730;9.108;2023-03-03T05:34:31;4.50;96.10
6792;DHT22;3433;48.730;9.108;2023-03-03T05:37:18;4.50;96.10
6792;DHT22;3433;48.730;9.108;2023-03-03T05:40:07;4.50;96.20
6792;DHT22;3433;48.730;9.108;2023-03-03T05:42:55;4.50;96.00
6792;DHT22;3433;48.730;9.108;2023-03-03T05:45:43;4.60;96.10
6792;DHT22;3433;48.730;9.108;2023-03-03T05:48:31;4.50;96.10
6792;DHT22;3433;48.730;9.108;2023-03-03T05:51:18;4.60;96.10
6792;DHT22;3433;48.730;9.108;2023-03-03T05:54:06;4.60;96.10
6792;DHT22;3433;48.730;9.108;2023-03-03T05:56:53;4.60;96.20
6792;DHT22;3433;48.730;9.108;2023-03-03T05:59:42;4.60;96.20
6792;DHT22;3433;48.730;9.108;2023-03-03T06:02:29;4.60;96.00
6792;DHT22;3433;48.730;9.108;2023-03-03T06:05:18;4.50;96.20
6792;DHT22;3433;48.730;9.108;2023-03-03T06:08:05;4.60;96.20
6792;DHT22;3433;48.730;9.108;2023-03-03T06:10:52;4.60;96.20
6792;DHT22;3433;48.730;9.108;2023-03-03T06:13:39;4.60;96.30
6792;DHT22;3433;48.730;9.108;2023-03-03T06:16:27;4.60;96.10
6792;DHT22;3433;48.730;9.108;2023-03-03T06:19:14;4.60;96.10
6792;DHT22;3433;48.730;9.108;2023-03-03T06:22:03;4.70;96.30
6792;DHT22;3433;48.730;9.108;2023-03-03T06:24:50;4.70;96.20
6792;DHT22;3433;48.730;9.108;2023-03-03T06:27:38;4.70;96.20
6792;DHT22;3433;48.730;9.108;2023-03-03T06:30:25;4.70;96.20
6792;DHT22;3433;48.730;9.108;2023-03-03T06:33:13;4.70;96.30
6792;DHT22;3433;48.730;9.108;2023-03-03T06:36:00;4.70;96.30
6792;DHT22;3433;48.730;9.108;2023-03-03T06:38:49;4.90;99.20
6792;DHT22;3433;48.730;9.108;2023-03-03T06:41:36;5.00;99.90
6792;DHT22;3433;48.730;9.108;2023-03-03T06:44:23;5.30;99.80
6792;DHT22;3433;48.730;9.108;2023-03-03T06:47:11;5.50;98.90
6792;DHT22;3433;48.730;9.108;2023-03-03T06:49:58;5.60;98.30
6792;DHT22;3433;48.730;9.108;2023-03-03T06:52:48;5.60;97.70
6792;DHT22;3433;48.730;9.108;2023-03-03T06:55:37;5.60;97.40
6792;DHT22;3433;48.730;9.108;2023-03-03T06:58:25;5.60;97.20
6792;DHT22;3433;48.730;9.108;2023-03-03T07:01:16;5.50;96.90
6792;DHT22;3433;48.730;9.108;2023-03-03T07:04:11;5.40;96.70
6792;DHT22;3433;48.730;9.108;2023-03-03T07:07:10;5.40;96.70
6792;DHT22;3433;48.730;9.108;2023-03-03T07:09:59;5.30;96.70
6792;DHT22;3433;48.730;9.108;2023-03-03T07:12:48;5.30;96.70
6792;DHT22;3433;48.730;9.108;2023-03-03T07:15:35;5.30;96.70
6792;DHT22;3433;48.730;9.108;2023-03-03T07:18:33;5.30;96.60
6792;DHT22;3433;48.730;9.108;2023-03-03T07:21:22;5.20;96.60
6792;DHT22;3433;48.730;9.108;2023-03-03T07:24:21;5.30;96.80
6792;DHT22;3433;48.730;9.108;2023-03-03T07:27:22;5.30;96.50
6792;DHT22;3433;48.730;9.108;2023-03-03T07:30:23;5.20;96.40
6792;DHT22;3433;48.730;9.108;2023-03-03T07:33:19;5.20;96.40
6792;DHT22;3433;48.730;9.108;2023-03-03T07:36:23;5.20;96.70
6792;DHT22;3433;48.730;9.108;2023-03-03T07:39:30;5.20;96.30
6792;DHT22;3433;48.730;9.108;2023-03-03T07:42:21;5.20;96.30
6792;DHT22;3433;48.730;9.108;2023-03-03T07:45:24;5.20;96.30
6792;DHT22;3433;48.730;9.108;2023-03-03T07:48:29;5.30;96.20
6792;DHT22;3433;48.730;9.108;2023-03-03T07:51:20;5.30;96.10
6792;DHT22;3433;48.730;9.108;2023-03-03T07:54:29;5.30;96.10
6792;DHT22;3433;48.730;9.108;2023-03-03T07:57:21;5.30;96.10
6792;DHT22;3433;48.730;9.108;2023-03-03T08:03:34;5.40;96.00
6792;DHT22;3433;48.730;9.108;2023-03-03T08:06:39;5.60;96.20
6792;DHT22;3433;48.730;9.108;2023-03-03T08:09:45;5.70;96.10
6792;DHT22;3433;48.730;9.108;2023-03-03T08:12:38;5.70;96.00
6792;DHT22;3433;48.730;9.108;2023-03-03T08:15:30;5.80;96.10
6792;DHT22;3433;48.730;9.108;2023-03-03T08:18:23;5.90;96.20
6792;DHT22;3433;48.730;9.108;2023-03-03T08:21:12;6.10;96.20
6792;DHT22;3433;48.730;9.108;2023-03-03T08:24:00;6.20;96.30
6792;DHT22;3433;48.730;9.108;2023-03-03T08:26:47;6.30;96.30
6792;DHT22;3433;48.730;9.108;2023-03-03T08:29:35;6.40;96.30
6792;DHT22;3433;48.730;9.108;2023-03-03T08:32:23;6.60;96.30
6792;DHT22;3433;48.730;9.108;2023-03-03T08:35:10;6.70;96.30
6792;DHT22;3433;48.730;9.108;2023-03-03T08:37:59;6.90;96.30
6792;DHT22;3433;48.730;9.108;2023-03-03T08:40:46;7.00;96.30
6792;DHT22;3433;48.730;9.108;2023-03-03T08:43:34;7.10;96.40
6792;DHT22;3433;48.730;9.108;2023-03-03T08:46:21;7.40;96.10
6792;DHT22;3433;48.730;9.108;2023-03-03T08:49:08;7.30;96.00
6792;DHT22;3433;48.730;9.108;2023-03-03T08:51:55;7.40;96.00
6792;DHT22;3433;48.730;9.108;2023-03-03T08:54:44;7.50;96.20
6792;DHT22;3433;48.730;9.108;2023-03-03T08:57:31;7.60;95.90
6792;DHT22;3433;48.730;9.108;2023-03-03T09:00:19;7.70;96.10
6792;DHT22;3433;48.730;9.108;2023-03-03T09:03:06;7.80;95.90
6792;DHT22;3433;48.730;9.108;2023-03-03T09:05:53;7.90;96.20
6792;DHT22;3433;48.730;9.108;2023-03-03T09:08:41;8.10;96.00
6792;DHT22;3433;48.730;9.108;2023-03-03T09:11:29;8.10;95.90
6792;DHT22;3433;48.730;9.108;2023-03-03T09:14:18;8.00;95.60
6792;DHT22;3433;48.730;9.108;2023-03-03T09:17:21;8.20;95.90
6792;DHT22;3433;48.730;9.108;2023-03-03T09:20:27;8.30;96.00
6792;DHT22;3433;48.730;9.108;2023-03-03T09:23:32;8.40;96.00
6792;DHT22;3433;48.730;9.108;2023-03-03T09:26:25;8.40;95.80
6792;DHT22;3433;48.730;9.108;2023-03-03T09:29:22;8.50;95.80
6792;DHT22;3433;48.730;9.108;2023-03-03T09:32:23;8.50;95.80
6792;DHT22;3433;48.730;9.108;2023-03-03T09:35:32;8.60;96.00
6792;DHT22;3433;48.730;9.108;2023-03-03T09:38:27;8.70;95.70
6792;DHT22;3433;48.730;9.108;2023-03-03T09:45:17;8.90;95.40
6792;DHT22;3433;48.730;9.108;2023-03-03T09:48:47;9.00;95.80
6792;DHT22;3433;48.730;9.108;2023-03-03T09:51:55;9.30;95.60
6792;DHT22;3433;48.730;9.108;2023-03-03T09:54:55;9.30;94.80
6792;DHT22;3433;48.730;9.108;2023-03-03T09:58:01;9.30;94.50
6792;DHT22;3433;48.730;9.108;2023-03-03T10:00:58;9.20;94.40
6792;DHT22;3433;48.730;9.108;2023-03-03T10:04:13;9.20;94.50
6792;DHT22;3433;48.730;9.108;2023-03-03T10:07:22;9.30;94.50
6792;DHT22;3433;48.730;9.108;2023-03-03T10:10:24;9.30;93.40
6792;DHT22;3433;48.730;9.108;2023-03-03T10:13:22;9.20;94.20
6792;DHT22;3433;48.730;9.108;2023-03-03T10:16:24;9.20;94.40
6792;DHT22;3433;48.730;9.108;2023-03-03T10:19:27;9.20;94.80
6792;DHT22;3433;48.730;9.108;2023-03-03T10:22:21;9.30;94.70
6792;DHT22;3433;48.730;9.108;2023-03-03T10:25:20;9.50;94.50
6792;DHT22;3433;48.730;9.108;2023-03-03T10:28:39;9.50;93.50
6792;DHT22;3433;48.730;9.108;2023-03-03T10:31:40;9.60;93.80
6792;DHT22;3433;48.730;9.108;2023-03-03T10:34:50;9.70;94.20
6792;DHT22;3433;48.730;9.108;2023-03-03T10:37:47;9.70;94.00
6792;DHT22;3433;48.730;9.108;2023-03-03T10:40:40;9.80;94.00
6792;DHT22;3433;48.730;9.108;2023-03-03T10:43:51;9.80;94.40
6792;DHT22;3433;48.730;9.108;2023-03-03T10:46:54;10.20;93.40
6792;DHT22;3433;48.730;9.108;2023-03-03T10:49:52;10.30;94.20
6792;DHT22;3433;48.730;9.108;2023-03-03T10:52:46;10.50;93.30
6792;DHT22;3433;48.730;9.108;2023-03-03T10:55:36;10.80;93.60
6792;DHT22;3433;48.730;9.108;2023-03-03T10:58:50;11.20;93.40
6792;DHT22;3433;48.730;9.108;2023-03-03T11:01:46;11.50;93.20
6792;DHT22;3433;48.730;9.108;2023-03-03T11:04:43;11.40;93.40
6792;DHT22;3433;48.730;9.108;2023-03-03T11:07:39;11.40;93.70
6792;DHT22;3433;48.730;9.108;2023-03-03T11:10:38;11.60;92.30
6792;DHT22;3433;48.730;9.108;2023-03-03T11:13:36;11.70;93.40
6792;DHT22;3433;48.730;9.108;2023-03-03T11:16:49;11.70;92.70
6792;DHT22;3433;48.730;9.108;2023-03-03T11:19:53;11.80;93.30
6792;DHT22;3433;48.730;9.108;2023-03-03T11:22:46;11.80;92.60
6792;DHT22;3433;48.730;9.108;2023-03-03T11:25:43;11.80;92.30
6792;DHT22;3433;48.730;9.108;2023-03-03T11:28:48;11.90;93.50
6792;DHT22;3433;48.730;9.108;2023-03-03T11:31:42;11.90;93.30
6792;DHT22;3433;48.730;9.108;2023-03-03T11:34:48;11.90;92.60
6792;DHT22;3433;48.730;9.108;2023-03-03T11:37:42;11.70;93.00
6792;DHT22;3433;48.730;9.108;2023-03-03T11:40:38;11.80;93.30
6792;DHT22;3433;48.730;9.108;2023-03-03T11:43:32;11.70;91.90
6792;DHT22;3433;48.730;9.108;2023-03-03T11:46:25;11.60;92.70
6792;DHT22;3433;48.730;9.108;2023-03-03T11:49:17;11.50;92.90
6792;DHT22;3433;48.730;9.108;2023-03-03T11:52:21;11.40;93.00
6792;DHT22;3433;48.730;9.108;2023-03-03T11:55:14;11.30;92.50
6792;DHT22;3433;48.730;9.108;2023-03-03T11:58:10;11.10;92.50
6792;DHT22;3433;48.730;9.108;2023-03-03T12:01:01;11.20;92.30
6792;DHT22;3433;48.730;9.108;2023-03-03T12:03:55;11.30;92.50
6792;DHT22;3433;48.730;9.108;2023-03-03T12:06:55;11.30;93.00
6792;DHT22;3433;48.730;9.108;2023-03-03T12:09:54;11.30;91.30
6792;DHT22;3433;48.730;9.108;2023-03-03T12:12:44;11.40;92.60
6792;DHT22;3433;48.730;9.108;2023-03-03T12:15:37;11.40;92.50
6792;DHT22;3433;48.730;9.108;2023-03-03T12:18:39;11.60;91.80
6792;DHT22;3433;48.730;9.108;2023-03-03T12:21:45;11.60;92.30
6792;DHT22;3433;48.730;9.108;2023-03-03T12:24:50;11.70;91.90
6792;DHT22;3433;48.730;9.108;2023-03-03T12:27:52;12.10;92.10
6792;DHT22;3433;48.730;9.108;2023-03-03T12:31:05;12.50;90.80
6792;DHT22;3433;48.730;9.108;2023-03-03T12:33:57;12.80;90.90
6792;DHT22;3433;48.730;9.108;2023-03-03T12:37:01;13.20;92.30
6792;DHT22;3433;48.730;9.108;2023-03-03T12:39:59;13.60;92.30
6792;DHT22;3433;48.730;9.108;2023-03-03T12:43:02;13.90;91.90
6792;DHT22;3433;48.730;9.108;2023-03-03T12:45:59;14.10;91.90
6792;DHT22;3433;48.730;9.108;2023-03-03T12:48:48;14.50;92.40
6792;DHT22;3433;48.730;9.108;2023-03-03T12:51:47;14.60;91.10
6792;DHT22;3433;48.730;9.108;2023-03-03T12:54:49;14.90;89.80
6792;DHT22;3433;48.730;9.108;2023-03-03T12:57:45;15.10;91.30
6792;DHT22;3433;48.730;9.108;2023-03-03T13:00:45;15.40;91.50
6792;DHT22;3433;48.730;9.108;2023-03-03T13:03:39;15.70;92.50
6792;DHT22;3433;48.730;9.108;2023-03-03T13:06:31;16.00;92.20
6792;DHT22;3433;48.730;9.108;2023-03-03T13:09:31;16.50;92.10
6792;DHT22;3433;48.730;9.108;2023-03-03T13:12:38;16.90;91.40
6792;DHT22;3433;48.730;9.108;2023-03-03T13:15:38;17.20;90.20
6792;DHT22;3433;48.730;9.108;2023-03-03T13:18:38;17.40;89.70
6792;DHT22;3433;48.730;9.108;2023-03-03T13:21:32;17.30;89.90
6792;DHT22;3433;48.730;9.108;2023-03-03T13:24:24;17.30;89.00
6792;DHT22;3433;48.730;9.108;2023-03-03T13:27:16;17.30;90.20
6792;DHT22;3433;48.730;9.108;2023-03-03T13:30:15;17.40;90.20
6792;DHT22;3433;48.730;9.108;2023-03-03T13:33:09;17.30;84.80
6792;DHT22;3433;48.730;9.108;2023-03-03T13:35:59;17.40;83.20
6792;DHT22;3433;48.730;9.108;2023-03-03T13:38:49;17.30;88.50
6792;DHT22;3433;48.730;9.108;2023-03-03T13:41:43;17.40;87.60
6792;DHT22;3433;48.730;9.108;2023-03-03T13:44:36;17.40;88.00
6792;DHT22;3433;48.730;9.108;2023-03-03T13:47:30;17.40;85.40
6792;DHT22;3433;48.730;9.108;2023-03-03T13:50:23;17.40;82.90
6792;DHT22;3433;48.730;9.108;2023-03-03T13:53:39;17.20;83.20
6792;DHT22;3433;48.730;9.108;2023-03-03T13:56:40;17.10;81.80
6792;DHT22;3433;48.730;9.108;2023-03-03T13:59:32;17.10;85.60
6792;DHT22;3433;48.730;9.108;2023-03-03T14:02:39;16.90;83.20
6792;DHT22;3433;48.730;9.108;2023-03-03T14:05:35;17.00;84.80
6792;DHT22;3433;48.730;9.108;2023-03-03T14:11:37;16.70;85.00
6792;DHT22;3433;48.730;9.108;2023-03-03T14:14:38;16.80;83.90
6792;DHT22;3433;48.730;9.108;2023-03-03T14:17:31;16.60;78.40
6792;DHT22;3433;48.730;9.108;2023-03-03T14:20:23;16.40;81.40
6792;DHT22;3433;48.730;9.108;2023-03-03T14:23:16;16.30;81.30
6792;DHT22;3433;48.730;9.108;2023-03-03T14:26:08;16.00;82.60
6792;DHT22;3433;48.730;9.108;2023-03-03T14:29:15;16.00;81.40
6792;DHT22;3433;48.730;9.108;2023-03-03T14:32:20;16.00;83.70
6792;DHT22;3433;48.730;9.108;2023-03-03T14:35:16;15.80;82.60
6792;DHT22;3433;48.730;9.108;2023-03-03T14:38:11;15.70;79.60
6792;DHT22;3433;48.730;9.108;2023-03-03T14:41:12;15.70;82.80
6792;DHT22;3433;48.730;9.108;2023-03-03T14:44:26;15.50;81.60
6792;DHT22;3433;48.730;9.108;2023-03-03T14:47:21;15.20;80.40
6792;DHT22;3433;48.730;9.108;2023-03-03T14:50:33;15.10;80.40
6792;DHT22;3433;48.730;9.108;2023-03-03T14:53:30;15.00;81.80
6792;DHT22;3433;48.730;9.108;2023-03-03T14:56:23;15.00;82.40
6792;DHT22;3433;48.730;9.108;2023-03-03T14:59:18;14.90;82.40
6792;DHT22;3433;48.730;9.108;2023-03-03T15:02:40;14.80;80.30
6792;DHT22;3433;48.730;9.108;2023-03-03T15:05:29;14.60;81.00
6792;DHT22;3433;48.730;9.108;2023-03-03T15:08:25;14.40;81.20
6792;DHT22;3433;48.730;9.108;2023-03-03T15:11:26;14.40;79.50
6792;DHT22;3433;48.730;9.108;2023-03-03T15:14:15;14.20;81.30
6792;DHT22;3433;48.730;9.108;2023-03-03T15:17:24;14.30;81.40
6792;DHT22;3433;48.730;9.108;2023-03-03T15:20:21;14.20;82.30
6792;DHT22;3433;48.730;9.108;2023-03-03T15:23:34;14.20;83.30
6792;DHT22;3433;48.730;9.108;2023-03-03T15:26:31;14.10;82.20
6792;DHT22;3433;48.730;9.108;2023-03-03T15:29:25;14.00;82.60
6792;DHT22;3433;48.730;9.108;2023-03-03T15:32:21;14.00;81.00
6792;DHT22;3433;48.730;9.108;2023-03-03T15:35:22;13.80;81.40
6792;DHT22;3433;48.730;9.108;2023-03-03T15:38:19;13.70;81.00
6792;DHT22;3433;48.730;9.108;2023-03-03T15:41:22;13.40;81.00
6792;DHT22;3433;48.730;9.108;2023-03-03T15:44:17;13.20;82.10
6792;DHT22;3433;48.730;9.108;2023-03-03T15:47:23;13.10;82.40
6792;DHT22;3433;48.730;9.108;2023-03-03T15:50:25;12.90;82.70
6792;DHT22;3433;48.730;9.108;2023-03-03T15:53:30;12.70;81.60
6792;DHT22;3433;48.730;9.108;2023-03-03T15:56:27;12.60;82.40
6792;DHT22;3433;48.730;9.108;2023-03-03T15:59:43;12.50;82.80
6792;DHT22;3433;48.730;9.108;2023-03-03T16:02:45;12.30;83.10
6792;DHT22;3433;48.730;9.108;2023-03-03T16:05:40;12.30;82.60
6792;DHT22;3433;48.730;9.108;2023-03-03T16:08:41;12.10;83.20
6792;DHT22;3433;48.730;9.108;2023-03-03T16:11:35;11.90;82.90
6792;DHT22;3433;48.730;9.108;2023-03-03T16:14:42;11.80;84.40
6792;DHT22;3433;48.730;9.108;2023-03-03T16:17:38;11.70;84.10
6792;DHT22;3433;48.730;9.108;2023-03-03T16:20:33;11.60;84.20
6792;DHT22;3433;48.730;9.108;2023-03-03T16:23:30;11.60;84.30
6792;DHT22;3433;48.730;9.108;2023-03-03T16:26:35;11.50;84.40
6792;DHT22;3433;48.730;9.108;2023-03-03T16:29:35;11.40;84.60
6792;DHT22;3433;48.730;9.108;2023-03-03T16:32:33;11.40;84.70
6792;DHT22;3433;48.730;9.108;2023-03-03T16:35:25;11.20;84.40
6792;DHT22;3433;48.730;9.108;2023-03-03T16:38:18;11.10;84.50
6792;DHT22;3433;48.730;9.108;2023-03-03T16:41:11;11.00;84.60
6792;DHT22;3433;48.730;9.108;2023-03-03T16:44:03;10.90;84.80
6792;DHT22;3433;48.730;9.108;2023-03-03T16:47:05;10.80;84.80
6792;DHT22;3433;48.730;9.108;2023-03-03T16:50:11;10.70;84.90
6792;DHT22;3433;48.730;9.108;2023-03-03T16:53:11;10.60;85.10
6792;DHT22;3433;48.730;9.108;2023-03-03T16:56:05;10.50;85.10
6792;DHT22;3433;48.730;9.108;2023-03-03T16:59:16;10.40;84.90
6792;DHT22;3433;48.730;9.108;2023-03-03T17:02:22;10.30;85.30
6792;DHT22;3433;48.730;9.108;2023-03-03T17:05:23;10.20;85.00
6792;DHT22;3433;48.730;9.108;2023-03-03T17:08:26;10.10;85.80
6792;DHT22;3433;48.730;9.108;2023-03-03T17:11:27;10.00;85.40
6792;DHT22;3433;48.730;9.108;2023-03-03T17:14:32;9.90;86.30
6792;DHT22;3433;48.730;9.108;2023-03-03T17:17:32;9.90;86.40
6792;DHT22;3433;48.730;9.108;2023-03-03T17:20:38;9.70;86.30
6792;DHT22;3433;48.730;9.108;2023-03-03T17:23:54;9.60;86.60
6792;DHT22;3433;48.730;9.108;2023-03-03T17:26:56;9.50;86.50
6792;DHT22;3433;48.730;9.108;2023-03-03T17:30:02;9.40;86.40
6792;DHT22;3433;48.730;9.108;2023-03-03T17:33:02;9.30;86.40
6792;DHT22;3433;48.730;9.108;2023-03-03T17:36:17;9.20;86.50
6792;DHT22;3433;48.730;9.108;2023-03-03T17:39:18;9.10;86.50
6792;DHT22;3433;48.730;9.108;2023-03-03T17:42:13;9.00;87.20
6792;DHT22;3433;48.730;9.108;2023-03-03T17:45:08;8.90;86.70
6792;DHT22;3433;48.730;9.108;2023-03-03T17:48:19;8.80;86.70
6792;DHT22;3433;48.730;9.108;2023-03-03T17:51:27;8.70;86.90
6792;DHT22;3433;48.730;9.108;2023-03-03T17:54:51;8.60;87.00
6792;DHT22;3433;48.730;9.108;2023-03-03T17:57:51;8.50;87.00
6792;DHT22;3433;48.730;9.108;2023-03-03T18:00:51;8.40;86.80
6792;DHT22;3433;48.730;9.108;2023-03-03T18:04:08;8.30;86.90
6792;DHT22;3433;48.730;9.108;2023-03-03T18:07:27;8.30;87.10
6792;DHT22;3433;48.730;9.108;2023-03-03T18:10:38;8.10;86.80
6792;DHT22;3433;48.730;9.108;2023-03-03T18:13:44;8.00;86.80
6792;DHT22;3433;48.730;9.108;2023-03-03T18:20:16;7.80;87.00
6792;DHT22;3433;48.730;9.108;2023-03-03T18:23:29;7.70;87.00
6792;DHT22;3433;48.730;9.108;2023-03-03T18:26:37;7.50;87.00
6792;DHT22;3433;48.730;9.108;2023-03-03T18:29:25;7.40;86.80
6792;DHT22;3433;48.730;9.108;2023-03-03T18:32:18;7.40;86.80
6792;DHT22;3433;48.730;9.108;2023-03-03T18:35:23;7.20;86.80
6792;DHT22;3433;48.730;9.108;2023-03-03T18:38:34;7.10;86.80
6792;DHT22;3433;48.730;9.108;2023-03-03T18:41:25;7.00;86.90
6792;DHT22;3433;48.730;9.108;2023-03-03T18:44:27;7.00;87.00
6792;DHT22;3433;48.730;9.108;2023-03-03T18:47:15;6.80;87.00
6792;DHT22;3433;48.730;9.108;2023-03-03T18:50:13;6.80;87.00
6792;DHT22;3433;48.730;9.108;2023-03-03T18:53:15;6.70;87.00
6792;DHT22;3433;48.730;9.108;2023-03-03T18:56:08;6.60;87.80
6792;DHT22;3433;48.730;9.108;2023-03-03T18:58:57;6.50;86.90
6792;DHT22;3433;48.730;9.108;2023-03-03T19:01:45;6.40;86.90
6792;DHT22;3433;48.730;9.108;2023-03-03T19:04:37;6.40;87.10
6792;DHT22;3433;48.730;9.108;2023-03-03T19:07:27;6.30;87.00
6792;DHT22;3433;48.730;9.108;2023-03-03T19:10:52;6.30;87.10
6792;DHT22;3433;48.730;9.108;2023-03-03T19:13:43;6.20;87.20
6792;DHT22;3433;48.730;9.108;2023-03-03T19:16:34;6.10;87.10
6792;DHT22;3433;48.730;9.108;2023-03-03T19:19:24;6.10;87.10
6792;DHT22;3433;48.730;9.108;2023-03-03T19:22:21;6.00;87.30
6792;DHT22;3433;48.730;9.108;2023-03-03T19:25:17;5.90;87.40
6792;DHT22;3433;48.730;9.108;2023-03-03T19:28:26;5.80;87.40
6792;DHT22;3433;48.730;9.108;2023-03-03T19:31:23;5.70;87.70